createdAt,value
2022-11-07T00:00:02.512Z,9.77
2022-11-07T00:05:13.216Z,9.40
2022-11-07T00:10:14.019Z,9.02
2022-11-07T00:15:14.851Z,9.48
2022-11-07T00:20:17.139Z,8.90
2022-11-07T00:25:18.155Z,9.43
2022-11-07T00:30:19.039Z,9.35
2022-11-07T00:35:21.242Z,10.05
2022-11-07T00:40:22.045Z,9.10
2022-11-07T00:45:22.883Z,9.95
2022-11-07T00:50:25.011Z,10.50
2022-11-07T00:55:25.792Z,10.18
2022-11-07T01:00:27.249Z,10.63
2022-11-07T01:05:29.344Z,11.32
2022-11-07T01:10:30.180Z,12.00
2022-11-07T01:15:31.001Z,11.93
2022-11-07T01:20:33.145Z,11.43
2022-11-07T01:25:33.957Z,11.82
2022-11-07T01:30:35.135Z,12.63
2022-11-07T01:35:38.188Z,12.95
2022-11-07T01:41:04.103Z,13.82
2022-11-07T01:46:05.020Z,13.98
2022-11-07T01:51:08.344Z,14.02
2022-11-07T01:56:14.102Z,14.23
2022-11-07T02:01:16.322Z,13.35
2022-11-07T02:06:25.194Z,15.30
2022-11-07T02:11:26.366Z,13.35
2022-11-07T02:16:27.885Z,14.05
2022-11-07T02:21:42.240Z,14.95
2022-11-07T02:26:45.452Z,14.52
2022-11-07T02:31:46.271Z,14.27
2022-11-07T02:36:47.210Z,14.90
2022-11-07T02:41:49.804Z,14.43
2022-11-07T02:46:51.021Z,15.45
2022-11-07T02:51:51.842Z,15.15
2022-11-07T02:56:54.055Z,14.25
2022-11-07T03:01:55.115Z,15.20
2022-11-07T03:06:55.972Z,15.13
2022-11-07T03:11:58.161Z,13.40
2022-11-07T03:16:58.900Z,14.68
2022-11-07T03:21:59.768Z,15.50
2022-11-07T03:27:01.901Z,14.38
2022-11-07T03:32:02.695Z,14.68
2022-11-07T03:37:03.446Z,16.17
2022-11-07T03:42:05.841Z,13.98
2022-11-07T03:47:06.774Z,14.93
2022-11-07T03:52:07.537Z,15.30
2022-11-07T03:57:10.000Z,15.27
2022-11-07T04:02:10.965Z,13.00
2022-11-07T04:07:11.802Z,14.20
2022-11-07T04:12:31.401Z,14.27
2022-11-07T04:17:32.629Z,14.23
2022-11-07T04:22:34.140Z,14.68
2022-11-07T04:27:46.907Z,13.50
2022-11-07T04:32:48.671Z,13.32
2022-11-07T04:37:49.863Z,13.30
2022-11-07T04:42:52.120Z,14.00
2022-11-07T04:47:53.097Z,13.98
2022-11-07T04:52:53.931Z,13.30
2022-11-07T04:57:56.062Z,13.38
2022-11-07T05:02:56.941Z,12.13
2022-11-07T05:07:57.785Z,13.55
2022-11-07T05:12:59.964Z,13.25
2022-11-07T05:18:00.749Z,12.82
2022-11-07T05:23:15.543Z,14.60
2022-11-07T05:28:28.008Z,14.10
2022-11-07T05:33:31.541Z,12.40
2022-11-07T05:38:32.362Z,12.77
2022-11-07T05:43:34.592Z,12.88
2022-11-07T05:48:35.658Z,13.27
2022-11-07T05:53:36.639Z,12.68
2022-11-07T05:58:39.231Z,14.38
2022-11-07T06:03:40.003Z,13.85
2022-11-07T06:08:40.864Z,13.82
2022-11-07T06:13:43.015Z,14.00
2022-11-07T06:18:43.875Z,14.63
2022-11-07T06:23:44.823Z,14.20
2022-11-07T06:28:46.946Z,14.68
2022-11-07T06:33:50.739Z,13.02
2022-11-07T06:38:53.439Z,14.40
2022-11-07T06:43:55.578Z,15.80
2022-11-07T06:48:57.049Z,14.55
2022-11-07T06:53:57.957Z,14.63
2022-11-07T06:59:00.203Z,15.20
2022-11-07T07:04:01.443Z,13.68
2022-11-07T07:09:02.658Z,13.10
2022-11-07T07:14:10.228Z,13.43
2022-11-07T07:19:12.890Z,13.27
2022-11-07T07:24:13.908Z,12.50
2022-11-07T07:29:16.039Z,12.15
2022-11-07T07:34:16.815Z,12.57
2022-11-07T07:39:17.587Z,12.35
2022-11-07T07:44:19.920Z,11.05
2022-11-07T07:49:20.712Z,11.07
2022-11-07T07:54:21.589Z,11.00
2022-11-07T07:59:23.759Z,10.27
2022-11-07T08:04:24.704Z,10.95
2022-11-07T08:09:25.468Z,10.15
2022-11-07T08:14:27.729Z,10.55
2022-11-07T08:19:28.565Z,10.10
2022-11-07T08:24:29.333Z,10.15
2022-11-07T08:29:31.769Z,10.60
2022-11-07T08:34:32.554Z,9.25
2022-11-07T08:39:33.484Z,7.90
2022-11-07T08:44:36.763Z,8.57
2022-11-07T08:49:37.574Z,8.93
2022-11-07T08:54:38.328Z,8.48
2022-11-07T08:59:40.533Z,7.70
2022-11-07T09:04:41.501Z,8.15
2022-11-07T09:09:42.374Z,6.28
2022-11-07T09:14:44.550Z,5.65
2022-11-07T09:19:45.325Z,4.57
2022-11-07T09:24:46.207Z,5.00
2022-11-07T09:29:48.441Z,3.85
2022-11-07T09:34:55.927Z,3.80
2022-11-07T09:39:57.928Z,3.67
2022-11-07T09:45:01.198Z,3.40
2022-11-07T09:50:07.956Z,3.00
2022-11-07T09:55:16.607Z,3.05
2022-11-07T10:00:20.899Z,3.53
2022-11-07T10:05:31.793Z,3.20
2022-11-07T10:10:44.599Z,2.60
2022-11-07T10:16:03.007Z,1.80
2022-11-07T10:21:36.606Z,2.05
2022-11-07T10:26:33.300Z,1.10
2022-11-07T10:31:39.965Z,1.00
2022-11-07T10:36:40.847Z,1.10
2022-11-07T10:41:44.778Z,1.20
2022-11-07T10:46:51.540Z,1.10
2022-11-07T10:51:56.978Z,0.90
2022-11-07T10:57:03.421Z,1.10
2022-11-07T11:02:20.807Z,1.35
2022-11-07T11:07:28.418Z,1.20
2022-11-07T11:12:34.453Z,1.42
2022-11-07T11:17:37.093Z,1.08
2022-11-07T11:22:43.603Z,1.20
2022-11-07T11:27:47.851Z,1.05
2022-11-07T11:32:53.548Z,1.00
2022-11-07T11:38:01.865Z,1.60
2022-11-07T11:43:12.964Z,0.90
2022-11-07T11:48:25.451Z,1.30
2022-11-07T11:53:26.379Z,0.88
2022-11-07T11:58:40.285Z,1.67
2022-11-07T12:04:08.122Z,1.17
2022-11-07T12:09:33.071Z,0.82
2022-11-07T12:14:57.049Z,1.27
2022-11-07T12:20:11.262Z,1.40
2022-11-07T12:25:22.488Z,1.60
2022-11-07T12:30:27.441Z,1.17
2022-11-07T12:35:38.223Z,1.05
2022-11-07T12:40:51.189Z,1.15
2022-11-07T12:45:58.229Z,1.27
2022-11-07T12:51:06.109Z,0.95
2022-11-07T12:56:12.404Z,0.95
2022-11-07T13:01:14.798Z,1.20
2022-11-07T13:06:24.557Z,1.70
2022-11-07T13:11:32.800Z,1.20
2022-11-07T13:16:36.320Z,1.10
2022-11-07T13:21:43.415Z,1.27
2022-11-07T13:26:47.438Z,0.90
2022-11-07T13:32:06.544Z,1.30
2022-11-07T13:37:17.346Z,1.02
2022-11-07T13:42:19.869Z,1.90
2022-11-07T13:47:26.794Z,1.05
2022-11-07T13:52:39.565Z,1.13
2022-11-07T13:57:44.704Z,1.02
2022-11-07T14:02:52.419Z,1.30
2022-11-07T14:07:59.327Z,0.80
2022-11-07T14:13:07.326Z,1.35
2022-11-07T14:18:08.474Z,1.33
2022-11-07T14:23:14.317Z,1.65
2022-11-07T14:28:17.616Z,1.17
2022-11-07T14:33:21.015Z,1.00
2022-11-07T14:38:26.088Z,1.15
2022-11-07T14:43:27.856Z,1.35
2022-11-07T14:48:30.086Z,1.15
2022-11-07T14:53:38.050Z,1.10
2022-11-07T14:58:39.267Z,1.65
2022-11-07T15:03:52.674Z,0.90
2022-11-07T15:09:00.618Z,1.42
2022-11-07T15:14:04.065Z,1.13
2022-11-07T15:19:07.166Z,1.15
2022-11-07T15:24:32.517Z,0.88
2022-11-07T15:29:36.381Z,1.77
2022-11-07T15:34:58.756Z,1.20
2022-11-07T15:39:59.535Z,1.10
2022-11-07T15:45:00.401Z,1.10
2022-11-07T15:50:04.646Z,1.90
2022-11-07T15:55:10.387Z,1.13
2022-11-07T16:00:16.821Z,1.70
2022-11-07T16:05:18.370Z,1.42
2022-11-07T16:10:23.964Z,1.58
2022-11-07T16:15:26.423Z,2.05
2022-11-07T16:20:27.274Z,2.05
2022-11-07T16:25:31.569Z,1.95
2022-11-07T16:30:34.369Z,2.85
2022-11-07T16:35:35.190Z,2.85
2022-11-07T16:40:39.932Z,2.40
2022-11-07T16:45:46.382Z,2.38
2022-11-07T16:50:47.798Z,3.05
2022-11-07T16:55:53.696Z,3.85
2022-11-07T17:00:56.465Z,4.30
2022-11-07T17:05:59.974Z,4.88
2022-11-07T17:11:02.080Z,5.50
2022-11-07T17:16:03.063Z,5.22
2022-11-07T17:21:04.119Z,5.22
2022-11-07T17:26:07.009Z,5.32
2022-11-07T17:31:07.890Z,5.18
2022-11-07T17:36:23.927Z,5.55
2022-11-07T17:41:28.302Z,5.53
2022-11-07T17:46:32.211Z,5.55
2022-11-07T17:51:33.205Z,5.68
2022-11-07T17:56:35.517Z,5.53
2022-11-07T18:01:38.571Z,5.82
2022-11-07T18:06:41.597Z,4.90
2022-11-07T18:11:44.129Z,4.60
2022-11-07T18:16:44.980Z,5.10
2022-11-07T18:21:45.871Z,5.03
2022-11-07T18:26:50.938Z,5.10
2022-11-07T18:31:51.883Z,5.30
2022-11-07T18:36:52.795Z,4.88
2022-11-07T18:41:55.133Z,4.60
2022-11-07T18:46:56.049Z,4.85
2022-11-07T18:51:56.859Z,4.70
2022-11-07T18:56:59.271Z,6.00
2022-11-07T19:02:00.281Z,5.40
2022-11-07T19:07:01.231Z,4.90
2022-11-07T19:12:03.670Z,5.40
2022-11-07T19:17:04.878Z,5.88
2022-11-07T19:22:06.560Z,6.10
2022-11-07T19:27:09.106Z,6.07
2022-11-07T19:32:10.110Z,6.10
2022-11-07T19:37:11.476Z,6.78
2022-11-07T19:42:13.721Z,7.00
2022-11-07T19:47:14.613Z,6.65
2022-11-07T19:52:15.461Z,6.65
2022-11-07T19:57:17.989Z,6.18
2022-11-07T20:02:32.283Z,5.78
2022-11-07T20:07:34.312Z,6.30
2022-11-07T20:12:36.989Z,6.28
2022-11-07T20:17:38.165Z,6.53
2022-11-07T20:22:42.603Z,5.75
2022-11-07T20:27:48.225Z,6.75
2022-11-07T20:32:49.092Z,5.32
2022-11-07T20:37:50.023Z,5.15
2022-11-07T20:42:52.292Z,4.53
2022-11-07T20:47:53.184Z,4.20
2022-11-07T20:52:57.497Z,4.80
2022-11-07T20:58:03.625Z,4.78
2022-11-07T21:03:04.890Z,4.25
2022-11-07T21:08:06.374Z,4.20
2022-11-07T21:13:08.557Z,3.88
2022-11-07T21:18:11.608Z,4.05
2022-11-07T21:23:13.171Z,5.72
2022-11-07T21:28:17.965Z,4.40
2022-11-07T21:33:19.125Z,4.15
2022-11-07T21:38:20.409Z,3.78
2022-11-07T21:43:22.626Z,4.63
2022-11-07T21:48:23.468Z,3.92
2022-11-07T21:53:24.333Z,4.22
2022-11-07T21:58:26.695Z,3.50
2022-11-07T22:03:51.073Z,3.50
2022-11-07T22:08:49.565Z,2.83
2022-11-07T22:13:51.792Z,3.47
2022-11-07T22:18:52.881Z,3.40
2022-11-07T22:23:53.733Z,2.85
2022-11-07T22:28:56.320Z,3.20
2022-11-07T22:33:59.506Z,3.50
2022-11-07T22:39:00.379Z,2.88
2022-11-07T22:44:02.733Z,3.50
2022-11-07T22:49:03.942Z,2.95
2022-11-07T22:54:06.883Z,3.50
2022-11-07T22:59:10.337Z,3.60
2022-11-07T23:04:15.137Z,3.33
2022-11-07T23:09:17.052Z,2.63
2022-11-07T23:14:21.180Z,2.65
2022-11-07T23:19:24.193Z,2.88
2022-11-07T23:24:25.266Z,2.92
2022-11-07T23:29:27.433Z,3.00
2022-11-07T23:34:29.164Z,2.20
2022-11-07T23:39:30.339Z,2.90
2022-11-07T23:44:32.572Z,2.83
2022-11-07T23:49:51.328Z,2.50
2022-11-07T23:55:09.646Z,2.63
